sensor_id;sensor_type;location;lat;lon;timestamp;P1;durP1;ratioP1;P2;durP2;ratioP2
19645;SDS011;9971;52.446;13.452;2024-03-02T00:00:53;23.73;;;21.25;;
19645;SDS011;9971;52.446;13.452;2024-03-02T00:30:58;25.23;;;22.62;;
19645;SDS011;9971;52.446;13.452;2024-03-02T01:01:00;24.15;;;21.70;;
19645;SDS011;9971;52.446;13.452;2024-03-02T01:31:03;26.62;;;23.77;;
19645;SDS011;9971;52.446;13.452;2024-03-02T02:01:06;25.48;;;22.42;;
19645;SDS011;9971;52.446;13.452;2024-03-02T02:31:08;23.00;;;20.62;;
19645;SDS011;9971;52.446;13.452;2024-03-02T03:01:12;21.85;;;19.32;;
19645;SDS011;9971;52.446;13.452;2024-03-02T03:06:14;27.73;;;23.83;;
19645;SDS011;9971;52.446;13.452;2024-03-02T03:36:17;22.45;;;20.10;;
19645;SDS011;9971;52.446;13.452;2024-03-02T04:06:20;18.90;;;16.97;;
19645;SDS011;9971;52.446;13.452;2024-03-02T04:11:22;22.45;;;20.15;;
19645;SDS011;9971;52.446;13.452;2024-03-02T04:41:25;17.25;;;15.53;;
19645;SDS011;9971;52.446;13.452;2024-03-02T04:46:28;19.60;;;17.50;;
19645;SDS011;9971;52.446;13.452;2024-03-02T04:51:30;21.68;;;18.35;;
19645;SDS011;9971;52.446;13.452;2024-03-02T04:56:33;21.52;;;19.27;;
19645;SDS011;9971;52.446;13.452;2024-03-02T05:01:40;23.80;;;21.40;;
19645;SDS011;9971;52.446;13.452;2024-03-02T05:31:43;20.08;;;17.95;;
19645;SDS011;9971;52.446;13.452;2024-03-02T05:36:45;23.17;;;20.67;;
19645;SDS011;9971;52.446;13.452;2024-03-02T06:06:48;22.50;;;20.27;;
19645;SDS011;9971;52.446;13.452;2024-03-02T06:36:51;20.85;;;18.85;;
19645;SDS011;9971;52.446;13.452;2024-03-02T06:41:54;24.07;;;21.67;;
19645;SDS011;9971;52.446;13.452;2024-03-02T07:11:57;24.05;;;20.95;;
19645;SDS011;9971;52.446;13.452;2024-03-02T07:42:00;21.87;;;19.73;;
19645;SDS011;9971;52.446;13.452;2024-03-02T07:47:02;26.03;;;23.37;;
19645;SDS011;9971;52.446;13.452;2024-03-02T08:17:05;20.55;;;18.45;;
19645;SDS011;9971;52.446;13.452;2024-03-02T08:22:07;24.27;;;21.17;;
19645;SDS011;9971;52.446;13.452;2024-03-02T08:52:10;16.15;;;14.50;;
19645;SDS011;9971;52.446;13.452;2024-03-02T08:57:12;24.43;;;21.82;;
19645;SDS011;9971;52.446;13.452;2024-03-02T09:27:15;17.37;;;15.50;;
19645;SDS011;9971;52.446;13.452;2024-03-02T09:32:18;22.50;;;20.08;;
19645;SDS011;9971;52.446;13.452;2024-03-02T10:02:21;17.35;;;15.55;;
19645;SDS011;9971;52.446;13.452;2024-03-02T10:07:23;20.80;;;18.70;;
19645;SDS011;9971;52.446;13.452;2024-03-02T10:12:26;23.30;;;18.98;;
19645;SDS011;9971;52.446;13.452;2024-03-02T10:17:30;20.05;;;17.80;;
19645;SDS011;9971;52.446;13.452;2024-03-02T10:22:31;20.97;;;18.77;;
19645;SDS011;9971;52.446;13.452;2024-03-02T10:27:33;20.17;;;18.00;;
19645;SDS011;9971;52.446;13.452;2024-03-02T10:32:35;18.93;;;16.93;;
19645;SDS011;9971;52.446;13.452;2024-03-02T10:37:37;19.67;;;17.63;;
19645;SDS011;9971;52.446;13.452;2024-03-02T10:42:39;19.37;;;17.27;;
19645;SDS011;9971;52.446;13.452;2024-03-02T10:47:42;18.10;;;16.20;;
19645;SDS011;9971;52.446;13.452;2024-03-02T10:52:44;17.42;;;15.58;;
19645;SDS011;9971;52.446;13.452;2024-03-02T10:57:51;18.60;;;16.60;;
19645;SDS011;9971;52.446;13.452;2024-03-02T11:02:55;18.65;;;16.65;;
19645;SDS011;9971;52.446;13.452;2024-03-02T11:08:00;17.67;;;15.77;;
19645;SDS011;9971;52.446;13.452;2024-03-02T11:13:02;17.50;;;15.67;;
19645;SDS011;9971;52.446;13.452;2024-03-02T11:18:04;17.50;;;15.70;;
19645;SDS011;9971;52.446;13.452;2024-03-02T11:23:06;17.15;;;15.30;;
19645;SDS011;9971;52.446;13.452;2024-03-02T11:28:08;16.40;;;14.57;;
19645;SDS011;9971;52.446;13.452;2024-03-02T11:33:10;19.75;;;16.73;;
19645;SDS011;9971;52.446;13.452;2024-03-02T11:38:13;16.30;;;14.60;;
19645;SDS011;9971;52.446;13.452;2024-03-02T11:43:15;22.05;;;19.62;;
19645;SDS011;9971;52.446;13.452;2024-03-02T11:48:17;15.37;;;13.77;;
19645;SDS011;9971;52.446;13.452;2024-03-02T11:53:20;16.07;;;14.27;;
19645;SDS011;9971;52.446;13.452;2024-03-02T11:58:21;18.23;;;14.77;;
19645;SDS011;9971;52.446;13.452;2024-03-02T12:03:25;15.93;;;13.03;;
19645;SDS011;9971;52.446;13.452;2024-03-02T12:08:26;14.60;;;12.70;;
19645;SDS011;9971;52.446;13.452;2024-03-02T12:13:29;16.47;;;14.00;;
19645;SDS011;9971;52.446;13.452;2024-03-02T12:18:31;15.27;;;13.47;;
19645;SDS011;9971;52.446;13.452;2024-03-02T12:23:34;17.23;;;13.43;;
19645;SDS011;9971;52.446;13.452;2024-03-02T12:28:35;14.83;;;13.23;;
19645;SDS011;9971;52.446;13.452;2024-03-02T12:33:38;16.77;;;14.98;;
19645;SDS011;9971;52.446;13.452;2024-03-02T12:38:43;17.47;;;14.20;;
19645;SDS011;9971;52.446;13.452;2024-03-02T12:43:45;15.80;;;14.23;;
19645;SDS011;9971;52.446;13.452;2024-03-02T12:48:47;15.43;;;13.43;;
19645;SDS011;9971;52.446;13.452;2024-03-02T12:53:54;14.00;;;12.68;;
19645;SDS011;9971;52.446;13.452;2024-03-02T12:58:56;16.10;;;13.17;;
19645;SDS011;9971;52.446;13.452;2024-03-02T13:03:58;15.27;;;13.67;;
19645;SDS011;9971;52.446;13.452;2024-03-02T13:09:00;13.40;;;12.00;;
19645;SDS011;9971;52.446;13.452;2024-03-02T13:14:02;13.93;;;12.45;;
19645;SDS011;9971;52.446;13.452;2024-03-02T13:19:07;13.43;;;12.13;;
19645;SDS011;9971;52.446;13.452;2024-03-02T13:24:07;14.20;;;12.80;;
19645;SDS011;9971;52.446;13.452;2024-03-02T13:29:09;13.65;;;12.07;;
19645;SDS011;9971;52.446;13.452;2024-03-02T13:34:11;13.98;;;12.50;;
19645;SDS011;9971;52.446;13.452;2024-03-02T13:39:14;14.33;;;12.82;;
19645;SDS011;9971;52.446;13.452;2024-03-02T13:44:16;12.95;;;11.60;;
19645;SDS011;9971;52.446;13.452;2024-03-02T13:49:18;12.60;;;11.27;;
19645;SDS011;9971;52.446;13.452;2024-03-02T13:54:21;12.10;;;10.82;;
19645;SDS011;9971;52.446;13.452;2024-03-02T13:59:24;11.22;;;10.05;;
19645;SDS011;9971;52.446;13.452;2024-03-02T14:04:25;11.73;;;10.53;;
19645;SDS011;9971;52.446;13.452;2024-03-02T14:09:28;11.10;;;9.97;;
19645;SDS011;9971;52.446;13.452;2024-03-02T14:14:30;12.53;;;11.23;;
19645;SDS011;9971;52.446;13.452;2024-03-02T14:19:32;11.75;;;10.63;;
19645;SDS011;9971;52.446;13.452;2024-03-02T14:24:34;11.53;;;10.33;;
19645;SDS011;9971;52.446;13.452;2024-03-02T14:29:38;10.80;;;9.70;;
19645;SDS011;9971;52.446;13.452;2024-03-02T14:34:38;10.13;;;9.13;;
19645;SDS011;9971;52.446;13.452;2024-03-02T14:39:41;10.68;;;9.58;;
19645;SDS011;9971;52.446;13.452;2024-03-02T14:44:43;10.57;;;9.47;;
19645;SDS011;9971;52.446;13.452;2024-03-02T14:49:46;9.95;;;8.95;;
19645;SDS011;9971;52.446;13.452;2024-03-02T14:54:48;9.95;;;8.93;;
19645;SDS011;9971;52.446;13.452;2024-03-02T14:59:50;9.83;;;8.58;;
19645;SDS011;9971;52.446;13.452;2024-03-02T15:04:53;10.90;;;8.80;;
19645;SDS011;9971;52.446;13.452;2024-03-02T15:09:55;9.47;;;8.47;;
19645;SDS011;9971;52.446;13.452;2024-03-02T15:14:58;11.50;;;9.53;;
19645;SDS011;9971;52.446;13.452;2024-03-02T15:20:00;11.40;;;9.23;;
19645;SDS011;9971;52.446;13.452;2024-03-02T15:25:02;9.77;;;8.57;;
19645;SDS011;9971;52.446;13.452;2024-03-02T15:30:05;9.25;;;8.35;;
19645;SDS011;9971;52.446;13.452;2024-03-02T15:35:08;10.23;;;9.23;;
19645;SDS011;9971;52.446;13.452;2024-03-02T15:40:10;8.93;;;8.03;;
19645;SDS011;9971;52.446;13.452;2024-03-02T15:45:13;7.90;;;7.10;;
19645;SDS011;9971;52.446;13.452;2024-03-02T15:50:15;6.67;;;6.05;;
19645;SDS011;9971;52.446;13.452;2024-03-02T15:55:18;6.25;;;5.65;;
19645;SDS011;9971;52.446;13.452;2024-03-02T16:00:20;6.78;;;6.08;;
19645;SDS011;9971;52.446;13.452;2024-03-02T16:05:23;7.05;;;6.35;;
19645;SDS011;9971;52.446;13.452;2024-03-02T16:10:25;8.28;;;7.40;;
19645;SDS011;9971;52.446;13.452;2024-03-02T16:15:28;9.40;;;7.72;;
19645;SDS011;9971;52.446;13.452;2024-03-02T16:20:30;7.85;;;7.05;;
19645;SDS011;9971;52.446;13.452;2024-03-02T16:25:33;9.03;;;7.70;;
19645;SDS011;9971;52.446;13.452;2024-03-02T16:30:34;8.30;;;7.40;;
19645;SDS011;9971;52.446;13.452;2024-03-02T16:35:37;9.83;;;7.75;;
19645;SDS011;9971;52.446;13.452;2024-03-02T16:40:40;8.27;;;7.47;;
19645;SDS011;9971;52.446;13.452;2024-03-02T16:45:43;8.48;;;7.67;;
19645;SDS011;9971;52.446;13.452;2024-03-02T16:50:45;9.68;;;8.48;;
19645;SDS011;9971;52.446;13.452;2024-03-02T16:55:48;9.50;;;8.55;;
19645;SDS011;9971;52.446;13.452;2024-03-02T17:00:50;9.68;;;8.53;;
19645;SDS011;9971;52.446;13.452;2024-03-02T17:05:52;13.15;;;8.80;;
19645;SDS011;9971;52.446;13.452;2024-03-02T17:10:54;8.93;;;8.05;;
19645;SDS011;9971;52.446;13.452;2024-03-02T17:15:57;11.05;;;8.33;;
19645;SDS011;9971;52.446;13.452;2024-03-02T17:20:59;8.85;;;7.95;;
19645;SDS011;9971;52.446;13.452;2024-03-02T17:26:02;11.03;;;9.00;;
19645;SDS011;9971;52.446;13.452;2024-03-02T17:31:04;10.50;;;8.88;;
19645;SDS011;9971;52.446;13.452;2024-03-02T17:36:07;11.97;;;8.98;;
19645;SDS011;9971;52.446;13.452;2024-03-02T17:41:09;11.95;;;10.03;;
19645;SDS011;9971;52.446;13.452;2024-03-02T17:46:12;13.00;;;10.10;;
19645;SDS011;9971;52.446;13.452;2024-03-02T17:51:15;11.53;;;10.20;;
19645;SDS011;9971;52.446;13.452;2024-03-02T17:56:16;12.63;;;11.17;;
19645;SDS011;9971;52.446;13.452;2024-03-02T18:01:18;11.85;;;10.45;;
19645;SDS011;9971;52.446;13.452;2024-03-02T18:06:21;13.25;;;10.45;;
19645;SDS011;9971;52.446;13.452;2024-03-02T18:11:23;12.40;;;10.87;;
19645;SDS011;9971;52.446;13.452;2024-03-02T18:16:26;12.47;;;11.18;;
19645;SDS011;9971;52.446;13.452;2024-03-02T18:21:28;12.18;;;10.60;;
19645;SDS011;9971;52.446;13.452;2024-03-02T18:26:31;14.90;;;11.30;;
19645;SDS011;9971;52.446;13.452;2024-03-02T18:31:33;14.13;;;11.68;;
19645;SDS011;9971;52.446;13.452;2024-03-02T18:36:35;11.33;;;10.13;;
19645;SDS011;9971;52.446;13.452;2024-03-02T18:41:38;13.70;;;10.82;;
19645;SDS011;9971;52.446;13.452;2024-03-02T18:46:40;11.57;;;10.38;;
19645;SDS011;9971;52.446;13.452;2024-03-02T18:51:43;12.47;;;11.00;;
19645;SDS011;9971;52.446;13.452;2024-03-02T18:56:45;14.28;;;11.88;;
19645;SDS011;9971;52.446;13.452;2024-03-02T19:01:48;15.48;;;11.45;;
19645;SDS011;9971;52.446;13.452;2024-03-02T19:06:50;14.85;;;11.25;;
19645;SDS011;9971;52.446;13.452;2024-03-02T19:11:52;12.43;;;11.15;;
19645;SDS011;9971;52.446;13.452;2024-03-02T19:16:55;13.30;;;11.60;;
19645;SDS011;9971;52.446;13.452;2024-03-02T19:21:57;12.30;;;10.75;;
19645;SDS011;9971;52.446;13.452;2024-03-02T19:27:00;16.35;;;13.38;;
19645;SDS011;9971;52.446;13.452;2024-03-02T19:32:02;15.18;;;13.40;;
19645;SDS011;9971;52.446;13.452;2024-03-02T19:37:05;24.72;;;22.15;;
19645;SDS011;9971;52.446;13.452;2024-03-02T20:07:08;13.85;;;12.43;;
19645;SDS011;9971;52.446;13.452;2024-03-02T20:12:10;16.17;;;13.37;;
19645;SDS011;9971;52.446;13.452;2024-03-02T20:17:14;19.85;;;14.85;;
19645;SDS011;9971;52.446;13.452;2024-03-02T20:22:15;15.20;;;13.58;;
19645;SDS011;9971;52.446;13.452;2024-03-02T20:27:18;17.02;;;14.95;;
19645;SDS011;9971;52.446;13.452;2024-03-02T20:32:20;18.10;;;15.67;;
19645;SDS011;9971;52.446;13.452;2024-03-02T20:37:23;18.20;;;16.37;;
19645;SDS011;9971;52.446;13.452;2024-03-02T20:42:25;20.67;;;17.40;;
19645;SDS011;9971;52.446;13.452;2024-03-02T20:47:28;19.55;;;16.60;;
19645;SDS011;9971;52.446;13.452;2024-03-02T20:52:30;17.37;;;15.55;;
19645;SDS011;9971;52.446;13.452;2024-03-02T20:57:33;17.15;;;14.78;;
19645;SDS011;9971;52.446;13.452;2024-03-02T21:02:35;19.27;;;15.60;;
19645;SDS011;9971;52.446;13.452;2024-03-02T21:07:37;18.00;;;15.50;;
19645;SDS011;9971;52.446;13.452;2024-03-02T21:12:40;18.12;;;15.35;;
19645;SDS011;9971;52.446;13.452;2024-03-02T21:17:42;17.35;;;15.20;;
19645;SDS011;9971;52.446;13.452;2024-03-02T21:22:45;16.48;;;14.47;;
19645;SDS011;9971;52.446;13.452;2024-03-02T21:27:47;15.70;;;14.05;;
19645;SDS011;9971;52.446;13.452;2024-03-02T21:32:50;18.03;;;15.13;;
19645;SDS011;9971;52.446;13.452;2024-03-02T21:37:51;17.00;;;14.67;;
19645;SDS011;9971;52.446;13.452;2024-03-02T21:42:54;18.17;;;15.00;;
19645;SDS011;9971;52.446;13.452;2024-03-02T21:47:56;18.50;;;15.70;;
19645;SDS011;9971;52.446;13.452;2024-03-02T21:52:59;17.48;;;15.58;;
19645;SDS011;9971;52.446;13.452;2024-03-02T21:58:01;19.23;;;15.87;;
19645;SDS011;9971;52.446;13.452;2024-03-02T22:03:03;17.98;;;15.23;;
19645;SDS011;9971;52.446;13.452;2024-03-02T22:08:06;17.17;;;15.28;;
19645;SDS011;9971;52.446;13.452;2024-03-02T22:13:08;17.17;;;14.53;;
19645;SDS011;9971;52.446;13.452;2024-03-02T22:18:11;18.37;;;15.68;;
19645;SDS011;9971;52.446;13.452;2024-03-02T22:23:13;16.32;;;14.23;;
19645;SDS011;9971;52.446;13.452;2024-03-02T22:28:15;21.20;;;16.30;;
19645;SDS011;9971;52.446;13.452;2024-03-02T22:33:18;17.35;;;14.90;;
19645;SDS011;9971;52.446;13.452;2024-03-02T22:38:20;16.90;;;15.10;;
19645;SDS011;9971;52.446;13.452;2024-03-02T22:43:22;17.62;;;15.72;;
19645;SDS011;9971;52.446;13.452;2024-03-02T22:48:25;19.80;;;16.00;;
19645;SDS011;9971;52.446;13.452;2024-03-02T22:53:27;22.07;;;16.12;;
19645;SDS011;9971;52.446;13.452;2024-03-02T22:58:30;17.95;;;15.85;;
19645;SDS011;9971;52.446;13.452;2024-03-02T23:03:32;18.25;;;16.05;;
19645;SDS011;9971;52.446;13.452;2024-03-02T23:08:35;25.12;;;18.05;;
19645;SDS011;9971;52.446;13.452;2024-03-02T23:13:38;22.67;;;18.20;;
19645;SDS011;9971;52.446;13.452;2024-03-02T23:18:40;23.38;;;17.17;;
19645;SDS011;9971;52.446;13.452;2024-03-02T23:23:43;18.87;;;16.07;;
19645;SDS011;9971;52.446;13.452;2024-03-02T23:28:45;17.60;;;15.32;;
19645;SDS011;9971;52.446;13.452;2024-03-02T23:33:47;19.02;;;15.23;;
19645;SDS011;9971;52.446;13.452;2024-03-02T23:38:50;20.20;;;17.10;;
19645;SDS011;9971;52.446;13.452;2024-03-02T23:43:52;24.25;;;16.85;;
19645;SDS011;9971;52.446;13.452;2024-03-02T23:48:54;20.97;;;17.77;;
19645;SDS011;9971;52.446;13.452;2024-03-02T23:53:56;21.55;;;18.37;;
19645;SDS011;9971;52.446;13.452;2024-03-02T23:58:59;22.02;;;18.57;;
